Time;durP1;ratioP1;P1;durP2;ratioP2;P2;SDS_P1;SDS_P2;PMS_P1;PMS_P2;Temp;Humidity;BMP_temperature;BMP_pressure;BME280_temperature;BME280_humidity;BME280_pressure;Samples;Min_cycle;Max_cycle;Signal;HPM_P1;HPM_P2
2023/12/05 00:00:59;;;;;;;;;;;;;;;7.32;67.99;100343.63;7364647;19;20565;-62
2023/12/05 00:03:24;;;;;;;;;;;;;;;7.33;67.96;100337.56;7363801;19;19922;-62
2023/12/05 00:05:49;;;;;;;;;;;;;;;7.32;67.64;100338.44;7369793;19;19926;-62
2023/12/05 00:08:17;;;;;;;;;;;;;;;7.21;67.96;100324.75;7365789;19;19932;-61
2023/12/05 00:10:42;;;;;;;;;;;;;;;7.31;67.88;100341.91;7367492;19;19922;-62
2023/12/05 00:13:08;;;;;;;;;;;;;;;7.31;67.91;100346.25;7367303;19;20730;-63
2023/12/05 00:15:33;;;;;;;;;;;;;;;7.31;68.09;100351.47;7368504;19;19915;-62
2023/12/05 00:17:58;;;;;;;;;;;;;;;7.31;67.59;100349.72;7344084;19;19930;-62
2023/12/05 00:20:24;;;;;;;;;;;;;;;7.29;68.05;100349.72;7368767;19;20765;-62
2023/12/05 00:22:49;;;;;;;;;;;;;;;7.29;67.59;100348.88;7366172;19;19918;-63
2023/12/05 00:25:14;;;;;;;;;;;;;;;7.29;67.61;100354.91;7363718;19;19998;-62
2023/12/05 00:27:39;;;;;;;;;;;;;;;7.29;67.80;100361.84;7367481;19;20825;-62
2023/12/05 00:30:05;;;;;;;;;;;;;;;7.28;67.58;100362.72;7366378;19;20307;-62
2023/12/05 00:32:31;;;;;;;;;;;;;;;7.27;67.80;100374.88;7365401;19;19922;-62
2023/12/05 00:34:57;;;;;;;;;;;;;;;7.26;67.50;100369.69;7367258;19;19918;-62
2023/12/05 00:37:22;;;;;;;;;;;;;;;7.26;67.65;100367.97;7358416;19;19922;-63
2023/12/05 00:39:47;;;;;;;;;;;;;;;7.26;67.70;100372.31;7367744;19;19939;-62
2023/12/05 00:42:12;;;;;;;;;;;;;;;7.25;67.65;100379.22;7371035;19;19931;-62
2023/12/05 00:44:38;;;;;;;;;;;;;;;7.26;67.67;100385.28;7365583;19;19915;-62
2023/12/05 00:47:05;;;;;;;;;;;;;;;7.25;67.46;100388.78;7366575;19;19918;-62
2023/12/05 00:49:34;;;;;;;;;;;;;;;7.25;67.47;100393.97;7376176;19;19946;-63
2023/12/05 00:51:59;;;;;;;;;;;;;;;7.24;67.79;100397.41;7368158;19;19954;-62
2023/12/05 00:54:24;;;;;;;;;;;;;;;7.24;67.34;100397.41;7367881;19;19922;-62
2023/12/05 00:56:49;;;;;;;;;;;;;;;7.24;67.72;100392.22;7366221;19;20216;-62
2023/12/05 00:59:15;;;;;;;;;;;;;;;7.23;67.42;100391.38;7366161;19;20636;-62
2023/12/05 01:01:41;;;;;;;;;;;;;;;7.23;67.42;100401.75;7364584;19;19934;-62
2023/12/05 01:04:06;;;;;;;;;;;;;;;7.22;67.38;100400.03;7357745;19;20334;-62
2023/12/05 01:06:31;;;;;;;;;;;;;;;7.23;67.47;100398.31;7364197;19;19931;-62
2023/12/05 01:08:56;;;;;;;;;;;;;;;7.23;67.58;100408.69;7368871;19;19922;-61
2023/12/05 01:11:22;;;;;;;;;;;;;;;7.22;67.45;100410.44;7364212;19;20451;-62
2023/12/05 01:13:47;;;;;;;;;;;;;;;7.22;67.34;100414.78;7365612;19;19915;-62
2023/12/05 01:16:14;;;;;;;;;;;;;;;7.21;67.43;100418.25;7364748;19;19919;-62
2023/12/05 01:18:39;;;;;;;;;;;;;;;7.20;67.44;100421.72;7366549;19;20379;-62
2023/12/05 01:21:05;;;;;;;;;;;;;;;7.21;67.43;100428.63;7351212;19;19926;-62
2023/12/05 01:23:30;;;;;;;;;;;;;;;7.21;67.47;100420.84;7360374;19;19926;-62
2023/12/05 01:25:56;;;;;;;;;;;;;;;7.20;67.43;100426.94;7357099;19;19926;-62
2023/12/05 01:28:21;;;;;;;;;;;;;;;7.20;67.83;100421.72;7366346;19;19942;-61
2023/12/05 01:30:46;;;;;;;;;;;;;;;7.19;67.30;100425.19;7362661;19;20023;-62
2023/12/05 01:33:12;;;;;;;;;;;;;;;7.18;67.41;100413.09;7366197;19;19933;-62
2023/12/05 01:35:37;;;;;;;;;;;;;;;7.18;67.69;100420.88;7363142;19;19923;-62
2023/12/05 01:38:02;;;;;;;;;;;;;;;7.17;67.55;100417.44;7360254;19;21078;-62
2023/12/05 01:40:28;;;;;;;;;;;;;;;7.18;67.73;100420.88;7360700;19;20367;-62
2023/12/05 01:42:53;;;;;;;;;;;;;;;7.18;67.39;100426.94;7359790;19;19935;-62
2023/12/05 01:45:18;;;;;;;;;;;;;;;7.18;67.82;100426.06;7364935;19;19925;-62
2023/12/05 01:47:43;;;;;;;;;;;;;;;7.18;67.82;100433.88;7364326;19;19915;-62
2023/12/05 01:50:11;;;;;;;;;;;;;;;7.20;67.89;100427.78;7356959;19;19926;-62
2023/12/05 01:52:41;;;;;;;;;;;;;;;7.20;67.72;100432.97;7366041;19;19914;-62
2023/12/05 01:55:08;;;;;;;;;;;;;;;7.20;67.46;100432.97;7364359;19;20292;-62
2023/12/05 01:57:34;;;;;;;;;;;;;;;7.21;67.79;100433.84;7365412;19;19926;-63
2023/12/05 02:00:00;;;;;;;;;;;;;;;7.21;67.90;100444.22;7363569;19;19951;-62
2023/12/05 02:02:25;;;;;;;;;;;;;;;7.20;67.74;100439.91;7365458;19;19918;-62
2023/12/05 02:04:50;;;;;;;;;;;;;;;7.20;67.80;100437.31;7364219;19;19927;-62
2023/12/05 02:07:16;;;;;;;;;;;;;;;7.18;67.76;100442.50;7362836;19;19925;-62
2023/12/05 02:09:42;;;;;;;;;;;;;;;7.20;67.50;100450.31;7372278;19;19926;-63
2023/12/05 02:12:08;;;;;;;;;;;;;;;7.18;67.46;100450.31;7355547;19;19922;-62
2023/12/05 02:14:33;;;;;;;;;;;;;;;7.19;67.77;100452.00;7361629;19;19984;-62
2023/12/05 02:17:07;;;;;;;;;;;;;;;7.20;67.58;100461.53;7360952;19;19922;-62
2023/12/05 02:19:42;;;;;;;;;;;;;;;7.20;67.73;100468.47;7362073;19;20357;-62
2023/12/05 02:22:27;;;;;;;;;;;;;;;7.17;67.79;100461.56;7363535;19;19915;-63
2023/12/05 02:25:02;;;;;;;;;;;;;;;7.18;67.51;100467.63;7356829;19;19927;-62
2023/12/05 02:27:27;;;;;;;;;;;;;;;7.18;67.94;100467.63;7364399;19;20354;-63
2023/12/05 02:29:52;;;;;;;;;;;;;;;7.18;67.43;100470.22;7359558;19;19914;-62
2023/12/05 02:32:17;;;;;;;;;;;;;;;7.17;67.60;100469.34;7362753;19;19918;-62
2023/12/05 02:34:43;;;;;;;;;;;;;;;7.18;67.64;100470.22;7362998;19;20749;-62
2023/12/05 02:37:21;;;;;;;;;;;;;;;7.17;67.54;100473.69;7362628;19;20666;-61
2023/12/05 02:40:07;;;;;;;;;;;;;;;7.17;67.47;100481.50;7358795;19;20545;-62
2023/12/05 02:42:33;;;;;;;;;;;;;;;7.16;67.79;100492.75;7364605;19;19998;-62
2023/12/05 02:45:00;;;;;;;;;;;;;;;7.17;67.46;100497.06;7357274;19;19922;-62
2023/12/05 02:47:26;;;;;;;;;;;;;;;7.17;67.73;100499.66;7359354;19;19998;-62
2023/12/05 02:49:52;;;;;;;;;;;;;;;7.15;67.50;100496.25;7365820;19;20612;-62
2023/12/05 02:52:17;;;;;;;;;;;;;;;7.15;67.93;100484.13;7356146;19;19923;-62
2023/12/05 02:54:42;;;;;;;;;;;;;;;7.16;67.90;100495.34;7369317;19;19954;-62
2023/12/05 02:57:08;;;;;;;;;;;;;;;7.14;67.37;100494.50;7362694;19;19923;-64
2023/12/05 02:59:33;;;;;;;;;;;;;;;7.13;67.64;100493.63;7362349;19;19989;-62
2023/12/05 03:01:58;;;;;;;;;;;;;;;7.13;67.43;100500.56;7363681;19;19935;-62
2023/12/05 03:04:24;;;;;;;;;;;;;;;7.13;67.37;100508.38;7365776;19;19953;-62
2023/12/05 03:06:49;;;;;;;;;;;;;;;7.11;67.55;100499.75;7368951;19;19927;-62
2023/12/05 03:09:14;;;;;;;;;;;;;;;7.09;67.61;100501.47;7373808;19;19918;-63
2023/12/05 03:11:39;;;;;;;;;;;;;;;7.10;67.43;100508.41;7368781;19;20369;-61
2023/12/05 03:14:05;;;;;;;;;;;;;;;7.09;67.29;100515.31;7366705;19;20598;-62
2023/12/05 03:16:31;;;;;;;;;;;;;;;7.09;67.72;100511.88;7369044;19;19957;-62
2023/12/05 03:18:56;;;;;;;;;;;;;;;7.08;67.80;100512.75;7369868;19;19926;-62
2023/12/05 03:21:21;;;;;;;;;;;;;;;7.07;67.73;100511.03;7364627;19;19958;-62
2023/12/05 03:23:47;;;;;;;;;;;;;;;7.08;67.41;100515.34;7367171;19;20647;-63
2023/12/05 03:26:19;;;;;;;;;;;;;;;7.05;67.28;100515.41;7377717;19;19946;-62
2023/12/05 03:28:44;;;;;;;;;;;;;;;7.05;67.37;100525.78;7374233;19;19943;-62
2023/12/05 03:31:09;;;;;;;;;;;;;;;7.02;67.60;100517.13;7371115;19;19915;-62
2023/12/05 03:33:37;;;;;;;;;;;;;;;7.01;67.77;100520.63;7370897;19;20671;-62
2023/12/05 03:36:03;;;;;;;;;;;;;;;7.00;67.61;100518.91;7366228;19;19926;-62
2023/12/05 03:38:28;;;;;;;;;;;;;;;6.99;67.86;100512.00;7370561;19;20571;-62
2023/12/05 03:40:55;;;;;;;;;;;;;;;6.99;67.38;100517.19;7361950;19;20395;-62
2023/12/05 03:43:20;;;;;;;;;;;;;;;6.99;67.95;100522.38;7366524;19;19925;-62
2023/12/05 03:45:45;;;;;;;;;;;;;;;6.98;67.62;100515.44;7369758;19;19923;-63
2023/12/05 03:48:11;;;;;;;;;;;;;;;6.98;67.47;100525.81;7368926;19;19994;-62
2023/12/05 03:50:36;;;;;;;;;;;;;;;6.98;67.88;100531.03;7364034;19;19911;-62
2023/12/05 03:53:01;;;;;;;;;;;;;;;6.97;67.85;100518.91;7368438;19;19930;-62
2023/12/05 03:55:27;;;;;;;;;;;;;;;6.96;67.41;100530.19;7367709;19;19923;-62
2023/12/05 03:57:52;;;;;;;;;;;;;;;6.95;67.84;100528.47;7366877;19;20338;-62
2023/12/05 04:00:17;;;;;;;;;;;;;;;6.95;67.66;100533.66;7369278;19;19930;-62
2023/12/05 04:02:43;;;;;;;;;;;;;;;6.95;67.69;100531.06;7371955;19;19914;-63
2023/12/05 04:05:08;;;;;;;;;;;;;;;6.94;67.79;100534.53;7369301;19;19978;-61
2023/12/05 04:07:33;;;;;;;;;;;;;;;6.87;67.98;100525.09;7365838;19;19916;-62
2023/12/05 04:09:58;;;;;;;;;;;;;;;6.91;67.52;100531.97;7354082;19;19937;-63
2023/12/05 04:12:24;;;;;;;;;;;;;;;6.91;67.92;100534.56;7368328;19;19915;-63
2023/12/05 04:14:49;;;;;;;;;;;;;;;6.90;67.85;100538.06;7364149;19;19918;-62
2023/12/05 04:17:14;;;;;;;;;;;;;;;6.90;67.50;100538.06;7363374;19;19931;-62
2023/12/05 04:19:39;;;;;;;;;;;;;;;6.89;67.86;100536.31;7335149;19;19914;-62
2023/12/05 04:22:05;;;;;;;;;;;;;;;6.88;68.00;100534.59;7368809;19;19927;-62
2023/12/05 04:24:30;;;;;;;;;;;;;;;6.88;67.63;100529.41;7361363;19;19918;-63
2023/12/05 04:26:55;;;;;;;;;;;;;;;6.88;67.85;100523.34;7363028;19;19943;-62
2023/12/05 04:29:20;;;;;;;;;;;;;;;6.87;67.95;100532.88;7367303;19;19929;-62
2023/12/05 04:31:46;;;;;;;;;;;;;;;6.86;67.97;100541.53;7368818;19;20354;-62
2023/12/05 04:34:11;;;;;;;;;;;;;;;6.86;67.76;100541.53;7366737;19;19914;-63
2023/12/05 04:36:36;;;;;;;;;;;;;;;6.84;68.00;100547.59;7368128;19;20349;-62
2023/12/05 04:39:02;;;;;;;;;;;;;;;6.83;67.71;100551.09;7369247;19;20006;-62
2023/12/05 04:41:33;;;;;;;;;;;;;;;6.80;67.92;100541.63;7364183;19;19922;-62
2023/12/05 04:43:58;;;;;;;;;;;;;;;6.79;67.71;100552.84;7364050;19;19914;-62
2023/12/05 04:46:24;;;;;;;;;;;;;;;6.78;67.85;100551.13;7369794;19;20294;-62
2023/12/05 04:48:49;;;;;;;;;;;;;;;6.76;67.59;100560.69;7366990;19;19929;-63
2023/12/05 04:51:17;;;;;;;;;;;;;;;6.75;67.68;100558.97;7372869;19;19939;-62
2023/12/05 04:53:42;;;;;;;;;;;;;;;6.75;67.84;100574.53;7372098;19;19914;-62
2023/12/05 04:56:08;;;;;;;;;;;;;;;6.74;68.05;100567.59;7367013;19;19990;-62
2023/12/05 04:58:33;;;;;;;;;;;;;;;6.73;67.66;100571.06;7362162;19;19956;-62
2023/12/05 05:00:58;;;;;;;;;;;;;;;6.72;67.85;100577.16;7365424;19;20314;-62
2023/12/05 05:03:24;;;;;;;;;;;;;;;6.72;67.77;100577.16;7368069;19;19952;-62
2023/12/05 05:05:50;;;;;;;;;;;;;;;6.70;68.05;100578.91;7362915;19;19962;-62
2023/12/05 05:08:15;;;;;;;;;;;;;;;6.71;68.23;100588.41;7366570;19;19945;-62
2023/12/05 05:10:40;;;;;;;;;;;;;;;6.70;68.19;100581.50;7350759;19;20366;-62
2023/12/05 05:13:05;;;;;;;;;;;;;;;6.69;67.81;100584.94;7367442;19;20266;-62
2023/12/05 05:15:31;;;;;;;;;;;;;;;6.69;67.82;100580.63;7361035;19;20362;-62
2023/12/05 05:17:56;;;;;;;;;;;;;;;6.69;67.85;100590.13;7371692;19;19914;-62
2023/12/05 05:20:21;;;;;;;;;;;;;;;6.69;67.94;100590.13;7365859;19;20673;-61
2023/12/05 05:22:47;;;;;;;;;;;;;;;6.67;68.02;100587.56;7366066;19;19952;-62
2023/12/05 05:25:12;;;;;;;;;;;;;;;6.68;68.26;100591.00;7361748;19;20279;-62
2023/12/05 05:27:38;;;;;;;;;;;;;;;6.68;68.42;100593.59;7367031;19;20260;-62
2023/12/05 05:30:03;;;;;;;;;;;;;;;6.67;68.11;100605.72;7373612;19;20272;-62
2023/12/05 05:32:28;;;;;;;;;;;;;;;6.67;68.02;100599.69;7369601;19;20391;-62
2023/12/05 05:34:53;;;;;;;;;;;;;;;6.67;68.23;100602.28;7367227;19;19937;-62
2023/12/05 05:37:19;;;;;;;;;;;;;;;6.68;67.96;100614.38;7363440;19;19929;-62
2023/12/05 05:39:44;;;;;;;;;;;;;;;6.67;68.31;100617.84;7366637;19;19926;-63
2023/12/05 05:42:09;;;;;;;;;;;;;;;6.67;68.42;100618.69;7358882;19;19914;-62
2023/12/05 05:44:34;;;;;;;;;;;;;;;6.67;68.22;100615.25;7363752;19;19915;-62
2023/12/05 05:47:00;;;;;;;;;;;;;;;6.67;68.03;100623.03;7366077;19;20557;-62
2023/12/05 05:49:25;;;;;;;;;;;;;;;6.67;68.37;100612.66;7365906;19;20252;-62
2023/12/05 05:51:50;;;;;;;;;;;;;;;6.67;68.07;100623.03;7367340;19;19922;-63
2023/12/05 05:54:15;;;;;;;;;;;;;;;6.67;68.13;100620.44;7358617;19;19918;-62
2023/12/05 05:56:41;;;;;;;;;;;;;;;6.66;68.39;100626.50;7361882;19;19927;-62
2023/12/05 05:59:06;;;;;;;;;;;;;;;6.66;67.98;100634.28;7360707;19;19929;-62
2023/12/05 06:01:31;;;;;;;;;;;;;;;6.66;68.41;100642.06;7367745;19;20244;-62
2023/12/05 06:03:57;;;;;;;;;;;;;;;6.64;68.43;100634.31;7358760;19;19982;-62
2023/12/05 06:06:22;;;;;;;;;;;;;;;6.64;68.39;100638.59;7365158;19;19938;-62
2023/12/05 06:08:47;;;;;;;;;;;;;;;6.64;68.19;100649.88;7362621;19;20379;-62
2023/12/05 06:11:12;;;;;;;;;;;;;;;6.64;68.50;100654.19;7365448;19;19946;-62
2023/12/05 06:13:38;;;;;;;;;;;;;;;6.65;68.57;100663.72;7361114;19;19982;-62
2023/12/05 06:16:03;;;;;;;;;;;;;;;6.64;68.48;100669.75;7366480;19;19929;-62
2023/12/05 06:18:28;;;;;;;;;;;;;;;6.64;68.20;100667.16;7361644;19;19914;-62
2023/12/05 06:20:56;;;;;;;;;;;;;;;6.64;68.20;100674.94;7361492;19;20018;-62
2023/12/05 06:23:21;;;;;;;;;;;;;;;6.65;68.54;100677.53;7360618;19;19926;-62
2023/12/05 06:25:46;;;;;;;;;;;;;;;6.64;68.61;100685.31;7362490;19;19922;-62
2023/12/05 06:28:12;;;;;;;;;;;;;;;6.65;68.41;100681.88;7358803;19;19970;-62
2023/12/05 06:30:37;;;;;;;;;;;;;;;6.65;68.60;100674.09;7365510;19;19936;-62
2023/12/05 06:33:02;;;;;;;;;;;;;;;6.64;68.51;100674.94;7362032;19;19915;-63
2023/12/05 06:35:27;;;;;;;;;;;;;;;6.64;68.25;100677.53;7362948;19;20031;-62
2023/12/05 06:37:53;;;;;;;;;;;;;;;6.64;68.12;100675.81;7356834;19;19926;-62
2023/12/05 06:40:18;;;;;;;;;;;;;;;6.64;68.27;100677.53;7364169;19;20800;-62
2023/12/05 06:42:43;;;;;;;;;;;;;;;6.62;68.25;100682.75;7362539;19;20332;-63
2023/12/05 06:45:09;;;;;;;;;;;;;;;6.62;68.56;100679.28;7363614;19;19915;-62
2023/12/05 06:47:34;;;;;;;;;;;;;;;6.61;68.55;100686.22;7360334;19;19923;-62
2023/12/05 06:50:02;;;;;;;;;;;;;;;6.61;68.25;100690.53;7361265;19;19944;-61
2023/12/05 06:52:28;;;;;;;;;;;;;;;6.61;68.38;100698.31;7360885;19;19915;-62
2023/12/05 06:54:53;;;;;;;;;;;;;;;6.59;68.30;100697.47;7360898;19;19925;-62
2023/12/05 06:57:18;;;;;;;;;;;;;;;6.59;68.36;100700.03;7359038;19;19914;-66
2023/12/05 06:59:44;;;;;;;;;;;;;;;6.59;68.27;100697.47;7358822;19;20010;-62
2023/12/05 07:02:09;;;;;;;;;;;;;;;6.60;68.66;100694.00;7364649;19;19922;-62
2023/12/05 07:04:35;;;;;;;;;;;;;;;6.60;68.42;100688.81;7360062;19;19918;-62
2023/12/05 07:07:00;;;;;;;;;;;;;;;6.61;68.41;100691.41;7362724;19;19939;-62
2023/12/05 07:09:26;;;;;;;;;;;;;;;6.60;68.74;100694.00;7360589;19;19911;-63
2023/12/05 07:11:51;;;;;;;;;;;;;;;6.60;68.46;100697.47;7362703;19;20149;-62
2023/12/05 07:14:16;;;;;;;;;;;;;;;6.51;68.81;100684.53;7359996;19;20373;-63
2023/12/05 07:16:41;;;;;;;;;;;;;;;6.63;68.86;100704.34;7359998;19;19988;-62
2023/12/05 07:19:07;;;;;;;;;;;;;;;6.64;68.70;100716.44;7363158;19;20336;-63
2023/12/05 07:21:32;;;;;;;;;;;;;;;6.65;68.57;100718.19;7361327;19;19946;-62
2023/12/05 07:23:57;;;;;;;;;;;;;;;6.66;68.67;100731.16;7361666;19;20278;-62
2023/12/05 07:26:22;;;;;;;;;;;;;;;6.67;68.56;100729.41;7361112;19;19939;-62
2023/12/05 07:28:48;;;;;;;;;;;;;;;6.68;68.54;100720.75;7356053;19;19937;-63
2023/12/05 07:31:13;;;;;;;;;;;;;;;6.68;68.91;100728.53;7365901;19;19919;-62
2023/12/05 07:33:38;;;;;;;;;;;;;;;6.69;68.63;100730.25;7360185;19;19919;-62
2023/12/05 07:36:04;;;;;;;;;;;;;;;6.69;68.79;100738.94;7357121;19;19954;-63
2023/12/05 07:38:30;;;;;;;;;;;;;;;6.71;68.82;100738.91;7360159;19;20344;-62
2023/12/05 07:40:55;;;;;;;;;;;;;;;6.72;69.08;100745.81;7363915;19;19918;-62
2023/12/05 07:43:20;;;;;;;;;;;;;;;6.73;68.79;100739.75;7365704;19;19922;-62
2023/12/05 07:45:45;;;;;;;;;;;;;;;6.74;69.00;100749.25;7356784;19;19923;-63
2023/12/05 07:48:11;;;;;;;;;;;;;;;6.75;68.88;100745.81;7361119;19;19914;-62
2023/12/05 07:50:36;;;;;;;;;;;;;;;6.77;69.02;100749.25;7365944;19;20362;-63
2023/12/05 07:53:01;;;;;;;;;;;;;;;6.77;68.55;100754.44;7364107;19;19922;-62
2023/12/05 07:55:27;;;;;;;;;;;;;;;6.79;68.67;100757.00;7363732;19;19914;-62
2023/12/05 07:57:52;;;;;;;;;;;;;;;6.80;69.04;100756.16;7363359;19;19919;-62
2023/12/05 08:00:18;;;;;;;;;;;;;;;6.81;68.90;100755.28;7361169;19;19910;-62
2023/12/05 08:02:44;;;;;;;;;;;;;;;6.82;68.68;100755.28;7370427;19;19918;-62
2023/12/05 08:05:10;;;;;;;;;;;;;;;6.82;68.64;100754.41;7361442;19;19942;-62
2023/12/05 08:07:35;;;;;;;;;;;;;;;6.82;68.81;100747.47;7367482;19;19919;-62
2023/12/05 08:10:01;;;;;;;;;;;;;;;6.84;69.03;100750.91;7365231;19;20215;-62
2023/12/05 08:12:26;;;;;;;;;;;;;;;6.85;68.76;100746.63;7365903;19;19922;-65
2023/12/05 08:14:51;;;;;;;;;;;;;;;6.85;68.74;100754.41;7360601;19;20366;-61
2023/12/05 08:17:17;;;;;;;;;;;;;;;6.85;68.85;100757.00;7366502;19;20369;-64
2023/12/05 08:19:42;;;;;;;;;;;;;;;6.85;68.72;100760.47;7364126;19;19918;-61
2023/12/05 08:22:07;;;;;;;;;;;;;;;6.84;68.66;100769.09;7364096;19;20390;-62
2023/12/05 08:24:32;;;;;;;;;;;;;;;6.85;68.59;100768.25;7362984;19;19942;-62
2023/12/05 08:26:58;;;;;;;;;;;;;;;6.84;68.72;100776.88;7364933;19;20355;-62
2023/12/05 08:29:23;;;;;;;;;;;;;;;6.84;68.69;100776.88;7366453;19;19919;-62
2023/12/05 08:31:49;;;;;;;;;;;;;;;6.86;69.08;100779.47;7365910;19;19925;-61
2023/12/05 08:34:14;;;;;;;;;;;;;;;6.85;68.78;100781.22;7364605;19;20703;-62
2023/12/05 08:36:42;;;;;;;;;;;;;;;6.85;68.91;100778.63;7360773;19;19974;-62
2023/12/05 08:39:08;;;;;;;;;;;;;;;6.87;68.72;100782.06;7363318;19;19919;-62
2023/12/05 08:41:33;;;;;;;;;;;;;;;6.87;69.01;100779.47;7354036;19;19955;-61
2023/12/05 08:43:59;;;;;;;;;;;;;;;6.88;69.09;100783.78;7369283;19;20319;-62
2023/12/05 08:46:24;;;;;;;;;;;;;;;6.90;68.80;100794.16;7362153;19;19958;-62
2023/12/05 08:48:49;;;;;;;;;;;;;;;6.90;68.65;100792.44;7358003;19;20022;-61
2023/12/05 08:51:14;;;;;;;;;;;;;;;6.91;68.66;100801.94;7364023;19;19918;-62
2023/12/05 08:53:40;;;;;;;;;;;;;;;6.91;68.67;100804.53;7361410;19;20373;-61
2023/12/05 08:56:05;;;;;;;;;;;;;;;6.92;68.89;100801.06;7363045;19;19911;-62
2023/12/05 08:58:30;;;;;;;;;;;;;;;6.93;69.14;100812.31;7358456;19;19922;-62
2023/12/05 09:00:56;;;;;;;;;;;;;;;6.94;68.81;100812.28;7343421;19;20319;-62
2023/12/05 09:03:21;;;;;;;;;;;;;;;6.94;68.78;100814.88;7361728;19;19929;-62
2023/12/05 09:05:46;;;;;;;;;;;;;;;6.94;68.94;100809.69;7362713;19;19911;-62
2023/12/05 09:08:12;;;;;;;;;;;;;;;6.96;68.95;100809.72;7368426;19;19926;-62
2023/12/05 09:10:37;;;;;;;;;;;;;;;6.95;69.13;100811.44;7366338;19;19906;-61
2023/12/05 09:13:02;;;;;;;;;;;;;;;6.96;69.19;100802.78;7364253;19;19923;-61
2023/12/05 09:15:27;;;;;;;;;;;;;;;6.97;68.87;100808.81;7366544;19;19910;-61
2023/12/05 09:17:53;;;;;;;;;;;;;;;6.96;68.79;100818.34;7363787;19;19923;-62
2023/12/05 09:20:19;;;;;;;;;;;;;;;6.97;68.97;100814.03;7365220;19;19906;-61
2023/12/05 09:22:44;;;;;;;;;;;;;;;6.99;69.17;100820.06;7357515;19;19926;-62
2023/12/05 09:25:10;;;;;;;;;;;;;;;6.99;69.18;100822.66;7355171;19;19919;-61
2023/12/05 09:27:35;;;;;;;;;;;;;;;7.00;68.83;100825.25;7353257;19;19911;-61
2023/12/05 09:30:00;;;;;;;;;;;;;;;7.01;68.98;100826.13;7361174;19;20625;-62
2023/12/05 09:32:26;;;;;;;;;;;;;;;7.02;69.15;100826.09;7345728;19;19938;-62
2023/12/05 09:34:52;;;;;;;;;;;;;;;7.03;69.01;100819.16;7357761;19;20634;-61
2023/12/05 09:37:17;;;;;;;;;;;;;;;7.02;69.12;100813.13;7364306;19;19918;-61
2023/12/05 09:39:42;;;;;;;;;;;;;;;7.03;68.82;100812.25;7364927;19;19942;-62
2023/12/05 09:42:10;;;;;;;;;;;;;;;7.03;69.08;100807.03;7365130;19;19919;-61
2023/12/05 09:44:36;;;;;;;;;;;;;;;7.06;69.19;100818.31;7358572;19;19926;-62
2023/12/05 09:47:04;;;;;;;;;;;;;;;7.06;69.15;100811.38;7361819;19;19925;-62
2023/12/05 09:49:30;;;;;;;;;;;;;;;7.07;69.04;100820.88;7366337;19;19927;-61
2023/12/05 09:51:55;;;;;;;;;;;;;;;7.08;69.11;100826.94;7350944;19;19938;-62
2023/12/05 09:54:23;;;;;;;;;;;;;;;7.08;69.27;100821.72;7359927;19;19923;-61
2023/12/05 09:56:49;;;;;;;;;;;;;;;7.10;68.92;100831.25;7356831;19;20418;-62
2023/12/05 09:59:15;;;;;;;;;;;;;;;7.11;68.81;100821.72;7361001;19;19918;-62
2023/12/05 10:01:43;;;;;;;;;;;;;;;7.12;69.31;100828.63;7368276;19;19926;-61
2023/12/05 10:04:10;;;;;;;;;;;;;;;7.13;69.39;100819.97;7365662;19;19922;-62
2023/12/05 10:06:36;;;;;;;;;;;;;;;7.16;69.09;100825.16;7357110;19;20013;-62
2023/12/05 10:09:02;;;;;;;;;;;;;;;7.17;69.38;100822.53;7353911;19;20333;-62
2023/12/05 10:11:29;;;;;;;;;;;;;;;7.23;69.21;100832.03;7360397;19;19942;-61
2023/12/05 10:13:55;;;;;;;;;;;;;;;7.26;69.48;100837.22;7360137;19;19919;-62
2023/12/05 10:16:22;;;;;;;;;;;;;;;7.28;69.13;100835.44;7355985;19;19955;-61
2023/12/05 10:18:47;;;;;;;;;;;;;;;7.31;68.99;100840.63;7358224;19;19923;-62
2023/12/05 10:21:13;;;;;;;;;;;;;;;7.33;69.44;100846.66;7358146;19;20438;-61
2023/12/05 10:23:38;;;;;;;;;;;;;;;7.34;69.22;100843.19;7362489;19;19933;-61
2023/12/05 10:26:04;;;;;;;;;;;;;;;7.37;69.31;100850.97;7358411;19;20010;-62
2023/12/05 10:28:29;;;;;;;;;;;;;;;7.39;69.22;100854.41;7363592;19;19930;-62
2023/12/05 10:30:54;;;;;;;;;;;;;;;7.42;69.19;100858.75;7368101;19;19918;-61
2023/12/05 10:33:23;;;;;;;;;;;;;;;7.45;69.27;100854.41;7361017;19;19933;-62
2023/12/05 10:35:49;;;;;;;;;;;;;;;7.48;69.43;100869.09;7361509;19;19925;-62
2023/12/05 10:38:15;;;;;;;;;;;;;;;7.50;69.22;100867.31;7360352;19;19914;-62
2023/12/05 10:40:54;;;;;;;;;;;;;;;7.53;69.31;100878.56;7357357;19;19925;-61
2023/12/05 10:43:20;;;;;;;;;;;;;;;7.58;69.60;100867.28;7359814;19;19950;-62
2023/12/05 10:45:45;;;;;;;;;;;;;;;7.62;69.42;100871.59;7358251;19;19928;-61
2023/12/05 10:48:12;;;;;;;;;;;;;;;7.64;69.38;100870.69;7357212;19;19910;-61
2023/12/05 10:50:38;;;;;;;;;;;;;;;7.70;69.51;100874.97;7361262;19;19982;-62
2023/12/05 10:53:04;;;;;;;;;;;;;;;7.74;69.54;100876.66;7357376;19;19958;-62
2023/12/05 10:55:29;;;;;;;;;;;;;;;7.77;69.54;100881.84;7356023;19;20968;-62
2023/12/05 10:57:55;;;;;;;;;;;;;;;7.81;69.37;100883.56;7356298;19;19923;-61
2023/12/05 11:00:20;;;;;;;;;;;;;;;7.87;69.45;100887.84;7362299;19;19923;-61
2023/12/05 11:02:48;;;;;;;;;;;;;;;7.91;69.70;100895.59;7366133;19;19971;-62
2023/12/05 11:05:14;;;;;;;;;;;;;;;7.95;69.42;100897.28;7357483;19;19918;-62
2023/12/05 11:07:39;;;;;;;;;;;;;;;7.98;69.59;100902.47;7360908;19;20363;-62
2023/12/05 11:10:06;;;;;;;;;;;;;;;8.01;69.43;100901.59;7360248;19;19919;-62
2023/12/05 11:12:31;;;;;;;;;;;;;;;8.02;69.53;100904.16;7356667;19;19918;-61
2023/12/05 11:14:58;;;;;;;;;;;;;;;8.05;69.30;100911.94;7360515;19;20018;-61
2023/12/05 11:17:27;;;;;;;;;;;;;;;8.04;69.15;100910.22;7369934;19;19923;-64
2023/12/05 11:19:56;;;;;;;;;;;;;;;8.06;69.17;100911.06;7364204;19;19927;-62
2023/12/05 11:22:24;;;;;;;;;;;;;;;8.08;69.33;100913.66;7368055;19;20043;-61
2023/12/05 11:25:09;;;;;;;;;;;;;;;8.09;69.23;100912.78;7360941;19;19949;-62
2023/12/05 11:27:41;;;;;;;;;;;;;;;8.11;69.57;100916.25;7364135;19;19926;-61
2023/12/05 11:30:29;;;;;;;;;;;;;;;8.14;69.52;100917.94;7370206;19;20742;-61
2023/12/05 11:33:01;;;;;;;;;;;;;;;8.17;69.50;100910.13;7365935;19;20287;-62
2023/12/05 11:35:31;;;;;;;;;;;;;;;8.18;69.59;100910.09;7369970;19;19922;-62
2023/12/05 11:38:12;;;;;;;;;;;;;;;8.22;69.59;100900.53;7367785;19;19918;-62
2023/12/05 11:40:37;;;;;;;;;;;;;;;8.23;69.23;100907.44;7362516;19;19926;-62
2023/12/05 11:43:03;;;;;;;;;;;;;;;8.24;69.07;100893.56;7368224;19;20395;-62
2023/12/05 11:45:28;;;;;;;;;;;;;;;8.26;69.22;100897.88;7364199;19;19968;-62
2023/12/05 11:47:57;;;;;;;;;;;;;;;8.27;69.54;100894.41;7367084;19;19914;-62
2023/12/05 11:50:22;;;;;;;;;;;;;;;8.28;69.31;100897.84;7364896;19;19922;-62
2023/12/05 11:52:49;;;;;;;;;;;;;;;8.30;69.42;100896.09;7365214;19;19930;-62
2023/12/05 11:55:14;;;;;;;;;;;;;;;8.31;69.53;100896.09;7357768;19;19930;-61
2023/12/05 11:57:40;;;;;;;;;;;;;;;8.33;69.22;100898.66;7366997;19;20330;-62
2023/12/05 12:00:06;;;;;;;;;;;;;;;8.35;69.69;100896.91;7367391;19;19927;-61
2023/12/05 12:02:32;;;;;;;;;;;;;;;8.39;69.73;100906.44;7358777;19;20003;-61
2023/12/05 12:05:00;;;;;;;;;;;;;;;8.42;69.48;100908.16;7361906;19;19963;-61
2023/12/05 12:07:26;;;;;;;;;;;;;;;8.47;69.51;100906.38;7368546;19;19926;-61
2023/12/05 12:09:51;;;;;;;;;;;;;;;8.51;69.41;100898.50;7370314;19;20005;-61
2023/12/05 12:12:16;;;;;;;;;;;;;;;8.56;69.43;100907.09;7362393;19;20800;-62
2023/12/05 12:14:42;;;;;;;;;;;;;;;8.63;69.65;100897.50;7363646;19;19926;-61
2023/12/05 12:17:11;;;;;;;;;;;;;;;8.80;70.73;100905.13;7365247;19;19929;-62
2023/12/05 12:19:37;;;;;;;;;;;;;;;9.01;70.99;100899.63;7375053;19;19922;-62
2023/12/05 12:22:06;;;;;;;;;;;;;;;9.25;70.64;100902.78;7364290;19;19922;-61
2023/12/05 12:24:33;;;;;;;;;;;;;;;9.45;70.49;100905.13;7358426;19;19923;-62
2023/12/05 12:26:58;;;;;;;;;;;;;;;9.60;70.36;100908.34;7364097;19;21269;-62
2023/12/05 12:29:24;;;;;;;;;;;;;;;9.71;70.11;100909.94;7365687;19;20259;-61
2023/12/05 12:31:52;;;;;;;;;;;;;;;9.78;69.78;100898.50;7358132;19;19918;-61
2023/12/05 12:34:27;;;;;;;;;;;;;;;9.85;69.30;100895.78;7364327;19;20006;-61
2023/12/05 12:36:53;;;;;;;;;;;;;;;9.90;69.59;100903.53;7366915;19;19914;-62
2023/12/05 12:39:19;;;;;;;;;;;;;;;9.93;69.53;100902.59;7360386;19;19927;-62
2023/12/05 12:41:47;;;;;;;;;;;;;;;9.94;69.09;100906.97;7366913;19;20551;-62